createdAt,value
2019-03-29T00:00:28.081Z,80.69
2019-03-29T00:01:28.068Z,80.65
2019-03-29T00:02:28.098Z,79.24
2019-03-29T00:03:28.057Z,78.83
2019-03-29T00:04:28.048Z,78.41
2019-03-29T00:05:28.039Z,78.31
2019-03-29T00:06:28.037Z,77.97
2019-03-29T00:07:38.816Z,78.11
2019-03-29T00:08:29.004Z,78.31
2019-03-29T00:09:28.560Z,79.55
2019-03-29T00:10:27.973Z,78.62
2019-03-29T00:11:27.966Z,77.55
2019-03-29T00:12:27.985Z,77.86
2019-03-29T00:13:27.951Z,77.55
2019-03-29T00:14:27.944Z,77.76
2019-03-29T00:15:27.933Z,77.69
2019-03-29T00:16:27.916Z,78.14
2019-03-29T00:17:27.925Z,78.76
2019-03-29T00:18:27.899Z,80.14
2019-03-29T00:19:28.104Z,80.58
2019-03-29T00:20:27.871Z,81.31
2019-03-29T00:21:27.863Z,82.69
2019-03-29T00:22:27.886Z,82.38
2019-03-29T00:23:27.836Z,83.10
2019-03-29T00:24:27.827Z,82.89
2019-03-29T00:25:27.816Z,81.10
2019-03-29T00:26:27.811Z,80.10
2019-03-29T00:27:27.835Z,78.72
2019-03-29T00:28:27.782Z,77.66
2019-03-29T00:29:27.778Z,77.35
2019-03-29T00:30:27.765Z,76.53
2019-03-29T00:31:27.771Z,77.35
2019-03-29T00:32:27.778Z,76.93
2019-03-29T00:33:27.732Z,77.08
2019-03-29T00:34:27.721Z,78.00
2019-03-29T00:35:27.798Z,78.04
2019-03-29T00:36:27.709Z,79.41
2019-03-29T00:37:27.723Z,79.52
2019-03-29T00:38:27.686Z,80.18
2019-03-29T00:39:27.666Z,81.24
2019-03-29T00:40:27.666Z,82.69
2019-03-29T00:41:27.647Z,81.66
2019-03-29T00:42:27.667Z,82.69
2019-03-29T00:43:27.639Z,82.48
2019-03-29T00:44:27.628Z,82.52
2019-03-29T00:45:27.605Z,82.83
2019-03-29T00:46:27.597Z,83.97
2019-03-29T00:47:27.627Z,83.97
2019-03-29T00:48:27.576Z,84.07
2019-03-29T00:49:27.615Z,82.89
2019-03-29T00:50:27.562Z,83.00
2019-03-29T00:51:27.542Z,82.69
2019-03-29T00:52:27.553Z,82.83
2019-03-29T00:53:27.522Z,83.04
2019-03-29T00:54:28.143Z,84.11
2019-03-29T00:55:27.528Z,84.87
2019-03-29T00:56:27.503Z,85.45
2019-03-29T00:57:27.511Z,85.97
2019-03-29T00:58:27.489Z,85.24
2019-03-29T00:59:27.460Z,85.35
2019-03-29T01:00:27.448Z,85.35
2019-03-29T01:01:27.435Z,84.00
2019-03-29T01:02:27.453Z,85.10
2019-03-29T01:03:27.429Z,85.66
2019-03-29T01:04:27.401Z,85.76
2019-03-29T01:05:27.393Z,85.10
2019-03-29T01:06:27.396Z,84.63
2019-03-29T01:07:27.402Z,85.70
2019-03-29T01:08:27.363Z,86.07
2019-03-29T01:09:27.352Z,86.69
2019-03-29T01:10:27.341Z,86.63
2019-03-29T01:11:27.324Z,86.63
2019-03-29T01:12:27.370Z,86.94
2019-03-29T01:13:27.306Z,86.63
2019-03-29T01:14:27.296Z,86.52
2019-03-29T01:15:27.292Z,86.42
2019-03-29T01:16:27.839Z,86.21
2019-03-29T01:17:27.263Z,86.42
2019-03-29T01:18:27.285Z,86.73
2019-03-29T01:19:27.259Z,86.59
2019-03-29T01:20:27.252Z,86.73
2019-03-29T01:21:27.220Z,86.52
2019-03-29T01:22:27.203Z,86.32
2019-03-29T01:23:27.226Z,86.83
2019-03-29T01:24:27.202Z,87.70
2019-03-29T01:25:27.179Z,86.52
2019-03-29T01:26:27.419Z,86.73
2019-03-29T01:27:27.172Z,85.97
2019-03-29T01:28:27.187Z,84.48
2019-03-29T01:29:27.139Z,84.38
2019-03-29T01:30:27.136Z,84.23
2019-03-29T01:31:27.121Z,82.59
2019-03-29T01:32:27.120Z,83.10
2019-03-29T01:33:27.116Z,82.52
2019-03-29T01:34:27.078Z,84.17
2019-03-29T01:35:27.084Z,84.79
2019-03-29T01:36:27.893Z,85.35
2019-03-29T01:37:27.055Z,85.66
2019-03-29T01:38:27.066Z,85.72
2019-03-29T01:39:27.028Z,84.96
2019-03-29T01:40:27.025Z,84.23
2019-03-29T01:41:27.342Z,83.72
2019-03-29T01:42:27.007Z,83.41
2019-03-29T01:43:27.030Z,83.93
2019-03-29T01:44:27.873Z,83.83
2019-03-29T01:45:26.957Z,83.76
2019-03-29T01:46:26.962Z,84.79
2019-03-29T01:47:26.956Z,84.07
2019-03-29T01:48:26.966Z,84.00
2019-03-29T01:49:26.925Z,85.14
2019-03-29T01:50:26.923Z,85.80
2019-03-29T01:51:27.234Z,86.21
2019-03-29T01:52:26.899Z,86.57
2019-03-29T01:53:26.906Z,86.21
2019-03-29T01:54:26.880Z,86.83
2019-03-29T01:55:26.867Z,86.52
2019-03-29T01:56:26.877Z,86.83
2019-03-29T01:57:26.841Z,86.42
2019-03-29T01:58:26.852Z,86.36
2019-03-29T01:59:26.820Z,86.60
2019-03-29T02:00:26.812Z,87.64
2019-03-29T02:01:26.808Z,88.98
2019-03-29T02:02:26.776Z,88.88
2019-03-29T02:03:26.799Z,89.19
2019-03-29T02:04:26.769Z,88.84
2019-03-29T02:05:27.701Z,87.64
2019-03-29T02:06:26.757Z,88.26
2019-03-29T02:07:26.731Z,87.39
2019-03-29T02:08:35.685Z,87.70
2019-03-29T02:09:27.714Z,87.43
2019-03-29T02:10:26.718Z,86.77
2019-03-29T02:11:26.697Z,86.52
2019-03-29T02:12:26.684Z,86.42
2019-03-29T02:13:26.708Z,86.07
2019-03-29T02:14:26.654Z,85.10
2019-03-29T02:15:26.653Z,84.03
2019-03-29T02:16:26.638Z,83.10
2019-03-29T02:17:26.642Z,83.00
2019-03-29T02:18:26.623Z,82.69
2019-03-29T02:19:26.637Z,82.45
2019-03-29T02:20:26.598Z,82.28
2019-03-29T02:21:26.593Z,82.07
2019-03-29T02:22:26.585Z,83.00
2019-03-29T02:23:26.564Z,82.59
2019-03-29T02:24:26.577Z,82.48
2019-03-29T02:25:26.554Z,82.59
2019-03-29T02:26:26.523Z,82.89
2019-03-29T02:27:27.194Z,82.93
2019-03-29T02:28:26.511Z,82.59
2019-03-29T02:29:26.534Z,82.00
2019-03-29T02:30:26.510Z,83.59
2019-03-29T02:31:28.819Z,84.63
2019-03-29T02:32:26.467Z,84.52
2019-03-29T02:33:26.468Z,85.04
2019-03-29T02:34:26.473Z,85.60
2019-03-29T02:35:26.437Z,86.01
2019-03-29T02:36:26.429Z,86.57
2019-03-29T02:37:26.413Z,86.77
2019-03-29T02:38:26.434Z,86.71
2019-03-29T02:39:27.051Z,86.96
2019-03-29T02:40:26.397Z,87.85
2019-03-29T02:41:26.375Z,87.64
2019-03-29T02:42:26.373Z,86.81
2019-03-29T02:43:26.352Z,87.29
2019-03-29T02:44:26.377Z,86.25
2019-03-29T02:45:26.343Z,86.52
2019-03-29T02:46:26.329Z,86.52
2019-03-29T02:47:26.307Z,86.52
2019-03-29T02:48:26.308Z,86.21
2019-03-29T02:49:26.325Z,85.24
2019-03-29T02:50:26.289Z,85.24
2019-03-29T02:51:26.323Z,85.08
2019-03-29T02:52:26.279Z,86.11
2019-03-29T02:53:26.253Z,86.21
2019-03-29T02:54:26.271Z,84.97
2019-03-29T02:55:26.228Z,86.11
2019-03-29T02:56:26.218Z,86.18
2019-03-29T02:57:26.210Z,86.01
2019-03-29T02:58:26.194Z,85.24
2019-03-29T02:59:26.224Z,85.24
2019-03-29T03:00:26.177Z,85.14
2019-03-29T03:01:26.181Z,84.97
2019-03-29T03:02:26.717Z,85.86
2019-03-29T03:03:26.147Z,84.83
2019-03-29T03:04:26.185Z,85.45
2019-03-29T03:05:26.127Z,85.91
2019-03-29T03:06:26.107Z,86.07
2019-03-29T03:07:26.105Z,85.80
2019-03-29T03:08:26.104Z,85.60
2019-03-29T03:09:26.124Z,86.21
2019-03-29T03:10:26.073Z,85.91
2019-03-29T03:11:26.062Z,86.11
2019-03-29T03:12:26.052Z,84.77
2019-03-29T03:13:26.045Z,86.21
2019-03-29T03:14:26.071Z,86.42
2019-03-29T03:15:26.014Z,86.63
2019-03-29T03:16:26.008Z,85.86
2019-03-29T03:17:25.993Z,85.28
2019-03-29T03:18:25.996Z,85.66
2019-03-29T03:19:26.001Z,86.28
2019-03-29T03:20:25.976Z,85.66
2019-03-29T03:21:25.959Z,85.14
2019-03-29T03:22:25.951Z,85.45
2019-03-29T03:23:25.931Z,85.66
2019-03-29T03:24:25.962Z,85.24
2019-03-29T03:25:25.919Z,84.83
2019-03-29T03:26:36.889Z,85.66
2019-03-29T03:27:25.874Z,85.45
2019-03-29T03:28:25.871Z,85.45
2019-03-29T03:29:25.894Z,85.66
2019-03-29T03:30:25.850Z,85.45
2019-03-29T03:31:25.841Z,85.14
2019-03-29T03:32:25.840Z,85.24
2019-03-29T03:33:25.830Z,85.76
2019-03-29T03:34:25.848Z,85.86
2019-03-29T03:35:25.816Z,85.76
2019-03-29T03:36:25.795Z,85.66
2019-03-29T03:37:25.790Z,85.66
2019-03-29T03:38:25.778Z,86.07
2019-03-29T03:39:31.994Z,86.11
2019-03-29T03:40:26.769Z,85.97
2019-03-29T03:41:25.753Z,86.38
2019-03-29T03:42:25.747Z,85.18
2019-03-29T03:43:25.736Z,86.42
2019-03-29T03:44:25.740Z,86.73
2019-03-29T03:45:25.706Z,86.63
2019-03-29T03:46:25.688Z,86.11
2019-03-29T03:47:25.686Z,86.63
2019-03-29T03:48:25.662Z,85.91
2019-03-29T03:49:25.734Z,86.32
2019-03-29T03:50:25.645Z,86.01
2019-03-29T03:51:25.648Z,86.49
2019-03-29T03:52:25.640Z,86.32
2019-03-29T03:53:25.617Z,86.32
2019-03-29T03:54:25.615Z,86.42
2019-03-29T03:55:25.645Z,86.21
2019-03-29T03:56:25.582Z,86.88
2019-03-29T03:57:25.575Z,86.83
2019-03-29T03:58:25.566Z,87.08
2019-03-29T03:59:25.562Z,87.29
2019-03-29T04:00:25.593Z,87.35
2019-03-29T04:01:25.536Z,86.73
2019-03-29T04:02:25.521Z,87.35
2019-03-29T04:03:25.516Z,86.63
2019-03-29T04:04:25.505Z,86.94
2019-03-29T04:05:25.519Z,86.83
2019-03-29T04:06:25.486Z,86.83
2019-03-29T04:07:25.476Z,86.63
2019-03-29T04:08:25.455Z,86.83
2019-03-29T04:09:25.483Z,86.73
2019-03-29T04:10:25.576Z,87.87
2019-03-29T04:11:25.426Z,86.83
2019-03-29T04:12:25.415Z,87.87
2019-03-29T04:13:25.420Z,87.87
2019-03-29T04:14:25.405Z,87.97
2019-03-29T04:15:25.423Z,86.94
2019-03-29T04:16:25.363Z,87.46
2019-03-29T04:17:25.414Z,87.76
2019-03-29T04:18:25.353Z,87.56
2019-03-29T04:19:25.346Z,87.60
2019-03-29T04:20:25.367Z,87.60
2019-03-29T04:21:25.329Z,87.70
2019-03-29T04:22:25.314Z,87.81
2019-03-29T04:23:25.319Z,87.70
2019-03-29T04:24:25.293Z,88.43
2019-03-29T04:25:25.305Z,88.32
2019-03-29T04:26:25.272Z,87.81
2019-03-29T04:27:25.254Z,88.78
2019-03-29T04:28:25.255Z,88.84
2019-03-29T04:29:25.239Z,89.19
2019-03-29T04:30:25.263Z,88.74
2019-03-29T04:31:25.212Z,88.88
2019-03-29T04:32:25.219Z,89.15
2019-03-29T04:33:25.199Z,88.64
2019-03-29T04:34:25.178Z,89.36
2019-03-29T04:35:25.212Z,88.94
2019-03-29T04:36:25.181Z,88.94
2019-03-29T04:37:25.165Z,88.84
2019-03-29T04:38:25.269Z,88.74
2019-03-29T04:39:25.135Z,88.94
2019-03-29T04:40:25.156Z,88.78
2019-03-29T04:41:25.108Z,88.98
2019-03-29T04:42:25.106Z,89.61
2019-03-29T04:43:25.087Z,89.61
2019-03-29T04:44:25.087Z,89.50
2019-03-29T04:45:25.093Z,89.09
2019-03-29T04:46:25.062Z,88.88
2019-03-29T04:47:25.043Z,89.40
2019-03-29T04:48:25.041Z,89.29
2019-03-29T04:49:25.022Z,89.29
2019-03-29T04:50:25.045Z,89.40
2019-03-29T04:51:24.994Z,88.78
2019-03-29T04:52:25.003Z,89.61
2019-03-29T04:53:24.997Z,89.61
2019-03-29T04:54:24.969Z,89.71
2019-03-29T04:55:24.993Z,89.81
2019-03-29T04:56:24.953Z,89.92
2019-03-29T04:57:25.027Z,90.33
2019-03-29T04:58:24.947Z,89.50
2019-03-29T04:59:24.936Z,89.29
2019-03-29T05:00:24.943Z,89.09
2019-03-29T05:01:24.902Z,89.40
2019-03-29T05:02:24.889Z,89.29
2019-03-29T05:03:24.897Z,89.92
2019-03-29T05:04:24.867Z,89.46
2019-03-29T05:05:24.902Z,89.67
2019-03-29T05:06:24.843Z,89.15
2019-03-29T05:07:24.857Z,89.04
2019-03-29T05:08:24.829Z,89.04
2019-03-29T05:09:24.810Z,88.84
2019-03-29T05:10:24.837Z,89.04
2019-03-29T05:11:24.788Z,88.74
2019-03-29T05:12:24.783Z,89.04
2019-03-29T05:13:24.771Z,88.70
2019-03-29T05:14:24.762Z,88.94
2019-03-29T05:15:24.785Z,88.80
2019-03-29T05:16:24.739Z,88.74
2019-03-29T05:17:24.730Z,89.04
2019-03-29T05:18:24.724Z,88.84
2019-03-29T05:19:24.706Z,89.01
2019-03-29T05:20:24.725Z,88.70
2019-03-29T05:21:24.691Z,88.70
2019-03-29T05:22:24.677Z,89.11
2019-03-29T05:23:24.662Z,88.90
2019-03-29T05:24:24.654Z,88.80
2019-03-29T05:25:24.685Z,88.70
2019-03-29T05:26:25.619Z,88.49
2019-03-29T05:27:24.640Z,88.39
2019-03-29T05:28:24.646Z,88.49
2019-03-29T05:29:24.601Z,88.49
2019-03-29T05:30:24.627Z,89.22
2019-03-29T05:31:24.581Z,88.49
2019-03-29T05:32:24.573Z,88.39
2019-03-29T05:33:24.571Z,88.28
2019-03-29T05:34:24.565Z,87.62
2019-03-29T05:35:24.574Z,87.73
2019-03-29T05:36:24.540Z,86.86
2019-03-29T05:37:24.519Z,84.09
2019-03-29T05:38:24.514Z,82.92
2019-03-29T05:39:24.512Z,81.20
2019-03-29T05:40:34.944Z,80.65
2019-03-29T05:41:25.482Z,80.30
2019-03-29T05:42:24.497Z,78.51
2019-03-29T05:43:24.458Z,78.20
2019-03-29T05:44:24.461Z,76.93
2019-03-29T05:45:24.474Z,76.31
2019-03-29T05:46:24.429Z,74.84
2019-03-29T05:47:24.414Z,75.12
2019-03-29T05:48:24.407Z,74.91
2019-03-29T05:49:24.399Z,74.50
2019-03-29T05:50:24.409Z,74.87
2019-03-29T05:51:24.397Z,74.26
2019-03-29T05:52:24.365Z,74.70
2019-03-29T05:53:24.349Z,74.80
2019-03-29T05:54:24.341Z,75.21
2019-03-29T05:55:32.381Z,74.77
2019-03-29T05:56:25.320Z,74.57
2019-03-29T05:57:24.314Z,74.70
2019-03-29T05:58:24.287Z,74.60
2019-03-29T05:59:24.277Z,74.80
2019-03-29T06:00:24.299Z,74.46
2019-03-29T06:01:24.355Z,73.50
2019-03-29T06:02:24.326Z,72.65
2019-03-29T06:03:24.298Z,72.34
2019-03-29T06:04:24.250Z,73.57
2019-03-29T06:05:24.279Z,72.89
2019-03-29T06:06:24.219Z,72.78
2019-03-29T06:07:24.207Z,74.02
2019-03-29T06:08:24.198Z,73.30
2019-03-29T06:09:24.173Z,72.65
2019-03-29T06:10:24.247Z,73.10
2019-03-29T06:11:24.186Z,72.55
2019-03-29T06:12:24.153Z,73.57
2019-03-29T06:13:24.385Z,72.96
2019-03-29T06:14:24.131Z,72.75
2019-03-29T06:15:24.126Z,72.41
2019-03-29T06:16:38.057Z,71.48
2019-03-29T06:17:25.101Z,71.25
2019-03-29T06:18:24.089Z,70.73
2019-03-29T06:19:24.077Z,70.19
2019-03-29T06:20:24.127Z,69.95
2019-03-29T06:21:24.085Z,69.47
2019-03-29T06:22:24.034Z,69.65
2019-03-29T06:23:24.034Z,70.26
2019-03-29T06:24:24.012Z,69.57
2019-03-29T06:25:24.078Z,70.29
2019-03-29T06:26:24.025Z,69.34
2019-03-29T06:27:23.991Z,68.32
2019-03-29T06:28:23.990Z,69.37
2019-03-29T06:29:23.966Z,69.85
2019-03-29T06:30:23.969Z,69.65
2019-03-29T06:31:23.967Z,69.68
2019-03-29T06:32:23.977Z,69.65
2019-03-29T06:33:23.917Z,69.20
2019-03-29T06:34:23.933Z,69.07
2019-03-29T06:35:23.911Z,68.15
2019-03-29T06:36:23.940Z,67.81
2019-03-29T06:37:23.889Z,67.30
2019-03-29T06:38:23.875Z,66.52
2019-03-29T06:39:23.862Z,66.42
2019-03-29T06:40:23.868Z,65.98
2019-03-29T06:41:23.862Z,66.42
2019-03-29T06:42:23.826Z,65.91
2019-03-29T06:43:23.841Z,66.08
2019-03-29T06:44:23.814Z,66.18
2019-03-29T06:45:23.822Z,65.95
2019-03-29T06:46:23.818Z,65.61
2019-03-29T06:47:23.775Z,65.41
2019-03-29T06:48:23.775Z,64.49
2019-03-29T06:49:23.764Z,65.68
2019-03-29T06:50:23.744Z,64.32
2019-03-29T06:51:23.759Z,63.82
2019-03-29T06:52:23.736Z,64.36
2019-03-29T06:53:23.746Z,64.87
2019-03-29T06:54:23.715Z,64.46
2019-03-29T06:55:23.714Z,64.63
2019-03-29T06:56:23.733Z,64.02
2019-03-29T06:57:23.674Z,64.94
2019-03-29T06:58:23.664Z,64.70
2019-03-29T06:59:23.641Z,64.50
2019-03-29T07:00:23.631Z,62.94
2019-03-29T07:01:23.647Z,63.22
2019-03-29T07:02:23.617Z,63.22
2019-03-29T07:03:23.605Z,63.26
2019-03-29T07:04:23.588Z,60.61
2019-03-29T07:05:23.590Z,62.04
2019-03-29T07:06:23.604Z,61.36
2019-03-29T07:07:23.567Z,62.10
2019-03-29T07:08:23.600Z,62.92
2019-03-29T07:09:23.550Z,62.68
2019-03-29T07:10:23.541Z,62.81
2019-03-29T07:11:23.550Z,63.73
2019-03-29T07:12:23.512Z,61.87
2019-03-29T07:13:23.527Z,62.81
2019-03-29T07:14:23.488Z,63.29
2019-03-29T07:15:23.496Z,61.33
2019-03-29T07:16:23.533Z,59.57
2019-03-29T07:17:23.476Z,60.86
2019-03-29T07:18:23.448Z,58.96
2019-03-29T07:19:23.437Z,61.05
2019-03-29T07:20:23.441Z,60.98
2019-03-29T07:21:23.470Z,61.04
2019-03-29T07:22:23.412Z,62.26
2019-03-29T07:23:23.430Z,61.08
2019-03-29T07:24:23.398Z,59.57
2019-03-29T07:25:23.378Z,58.65
2019-03-29T07:26:23.404Z,58.04
2019-03-29T07:27:23.357Z,58.12
2019-03-29T07:28:23.345Z,58.48
2019-03-29T07:29:23.340Z,58.99
2019-03-29T07:30:23.319Z,59.37
2019-03-29T07:31:23.345Z,58.73
2019-03-29T07:32:23.294Z,57.66
2019-03-29T07:33:23.286Z,57.15
2019-03-29T07:34:23.277Z,57.97
2019-03-29T07:35:23.328Z,59.14
2019-03-29T07:36:23.281Z,58.29
2019-03-29T07:37:23.239Z,58.67
2019-03-29T07:38:23.226Z,58.11
2019-03-29T07:39:23.219Z,56.18
2019-03-29T07:40:23.211Z,55.32
2019-03-29T07:41:31.802Z,53.32
2019-03-29T07:42:24.190Z,53.38
2019-03-29T07:43:24.122Z,51.57
2019-03-29T07:44:23.168Z,49.93
2019-03-29T07:45:23.154Z,51.17
2019-03-29T07:46:23.184Z,50.95
2019-03-29T07:47:23.138Z,51.28
2019-03-29T07:48:23.127Z,50.69
2019-03-29T07:49:23.118Z,51.93
2019-03-29T07:50:23.108Z,49.69
2019-03-29T07:51:23.129Z,47.07
2019-03-29T07:52:23.090Z,46.67
2019-03-29T07:53:23.087Z,46.55
2019-03-29T07:54:23.064Z,46.77
2019-03-29T07:55:23.051Z,46.93
2019-03-29T07:56:23.035Z,45.15
2019-03-29T07:57:23.050Z,45.09
2019-03-29T07:58:23.019Z,46.62
2019-03-29T07:59:23.339Z,45.09
2019-03-29T08:00:22.997Z,44.77
2019-03-29T08:01:22.981Z,44.77
2019-03-29T08:02:23.003Z,43.54
2019-03-29T08:03:23.559Z,43.38
2019-03-29T08:04:23.892Z,41.93
2019-03-29T08:05:22.947Z,40.49
2019-03-29T08:06:22.926Z,40.49
2019-03-29T08:07:27.584Z,41.01
2019-03-29T08:08:30.442Z,40.99
2019-03-29T08:09:23.895Z,40.55
2019-03-29T08:10:27.565Z,44.09
2019-03-29T08:11:26.228Z,43.87
2019-03-29T08:12:22.952Z,43.30
2019-03-29T08:13:22.852Z,42.58
2019-03-29T08:14:22.849Z,44.00
2019-03-29T08:15:22.842Z,43.36
2019-03-29T08:16:22.841Z,41.91
2019-03-29T08:17:22.845Z,39.89
2019-03-29T08:18:22.806Z,40.79
2019-03-29T08:19:22.796Z,40.99
2019-03-29T08:20:40.158Z,40.31
2019-03-29T08:21:23.834Z,42.32
2019-03-29T08:22:22.796Z,42.94
2019-03-29T08:23:22.754Z,44.00
2019-03-29T08:24:23.574Z,43.16
2019-03-29T08:25:22.730Z,44.89
2019-03-29T08:26:22.864Z,43.74
2019-03-29T08:27:22.751Z,44.32
2019-03-29T08:28:22.738Z,44.92
2019-03-29T08:29:22.690Z,45.29
2019-03-29T08:30:22.682Z,45.82
2019-03-29T08:31:22.674Z,46.12
2019-03-29T08:32:22.681Z,44.81
2019-03-29T08:33:22.642Z,43.16
2019-03-29T08:34:22.635Z,43.56
2019-03-29T08:35:22.628Z,43.08
2019-03-29T08:36:22.616Z,42.96
2019-03-29T08:37:22.638Z,41.89
2019-03-29T08:38:22.594Z,40.33
2019-03-29T08:39:28.271Z,41.01
2019-03-29T08:40:23.632Z,43.30
2019-03-29T08:41:22.588Z,44.00
2019-03-29T08:42:22.588Z,44.48
2019-03-29T08:43:22.539Z,42.80
2019-03-29T08:44:22.532Z,40.75
2019-03-29T08:45:22.530Z,40.91
2019-03-29T08:46:22.543Z,41.07
2019-03-29T08:47:22.630Z,39.45
2019-03-29T08:48:22.497Z,40.57
2019-03-29T08:49:22.493Z,39.79
2019-03-29T08:50:22.469Z,37.92
2019-03-29T08:51:22.464Z,36.68
2019-03-29T08:52:22.479Z,40.41
2019-03-29T08:53:22.451Z,40.22
2019-03-29T08:54:22.434Z,37.90
2019-03-29T08:55:22.449Z,37.46
2019-03-29T08:56:22.502Z,35.72
2019-03-29T08:57:22.519Z,36.24
2019-03-29T08:58:22.951Z,37.76
2019-03-29T08:59:22.875Z,37.44
2019-03-29T09:00:22.360Z,36.89
2019-03-29T09:01:22.415Z,36.95
2019-03-29T09:02:25.039Z,35.29
2019-03-29T09:03:22.391Z,34.78
2019-03-29T09:04:22.460Z,37.08
2019-03-29T09:05:22.348Z,37.33
2019-03-29T09:06:22.889Z,39.57
2019-03-29T09:07:22.892Z,37.53
2019-03-29T09:08:22.287Z,37.77
2019-03-29T09:09:22.260Z,36.82
2019-03-29T09:10:22.263Z,38.31
2019-03-29T09:11:22.255Z,35.29
2019-03-29T09:12:22.267Z,35.46
2019-03-29T09:13:22.246Z,36.91
2019-03-29T09:14:22.211Z,36.98
2019-03-29T09:15:22.204Z,36.61
2019-03-29T09:16:22.197Z,35.42
2019-03-29T09:17:22.220Z,35.68
2019-03-29T09:18:25.648Z,37.46
2019-03-29T09:19:22.175Z,39.29
2019-03-29T09:20:22.158Z,40.31
2019-03-29T09:21:22.145Z,39.31
2019-03-29T09:22:22.156Z,38.31
2019-03-29T09:23:22.160Z,38.39
2019-03-29T09:24:22.602Z,39.31
2019-03-29T09:25:22.108Z,38.33
2019-03-29T09:26:22.098Z,36.60
2019-03-29T09:27:22.122Z,35.16
2019-03-29T09:28:22.068Z,35.85
2019-03-29T09:29:22.063Z,34.09
2019-03-29T09:30:22.057Z,33.68
2019-03-29T09:31:22.041Z,32.24
2019-03-29T09:32:22.050Z,32.65
2019-03-29T09:33:22.022Z,34.09
2019-03-29T09:34:22.011Z,34.36
2019-03-29T09:35:21.993Z,34.16
2019-03-29T09:36:21.981Z,35.68
2019-03-29T09:37:22.002Z,38.88
2019-03-29T09:38:21.965Z,40.97
2019-03-29T09:39:21.963Z,40.85
2019-03-29T09:40:21.991Z,37.85
2019-03-29T09:41:21.940Z,35.08
2019-03-29T09:42:28.852Z,35.39
2019-03-29T09:43:26.290Z,35.36
2019-03-29T09:44:21.914Z,34.66
2019-03-29T09:45:21.897Z,35.66
2019-03-29T09:46:21.882Z,38.02
2019-03-29T09:47:21.878Z,38.00
2019-03-29T09:48:21.890Z,38.29
2019-03-29T09:49:21.852Z,37.50
2019-03-29T09:50:23.039Z,37.08
2019-03-29T09:51:21.831Z,36.44
2019-03-29T09:52:21.820Z,36.55
2019-03-29T09:53:21.926Z,35.39
2019-03-29T09:54:21.808Z,35.69
2019-03-29T09:55:21.790Z,35.41
2019-03-29T09:56:21.780Z,34.83
2019-03-29T09:57:36.086Z,34.73
2019-03-29T09:58:22.786Z,35.28
2019-03-29T09:59:23.297Z,34.76
2019-03-29T10:00:23.451Z,34.63
2019-03-29T10:01:21.758Z,34.33
2019-03-29T10:02:21.713Z,35.58
2019-03-29T10:03:21.737Z,35.19
2019-03-29T10:04:21.710Z,35.06
2019-03-29T10:05:21.687Z,34.63
2019-03-29T10:06:21.696Z,33.20
2019-03-29T10:07:21.659Z,33.91
2019-03-29T10:08:21.688Z,34.56
2019-03-29T10:09:21.656Z,34.48
2019-03-29T10:10:21.643Z,37.20
2019-03-29T10:11:22.229Z,37.88
2019-03-29T10:12:21.626Z,38.22
2019-03-29T10:13:21.634Z,38.10
2019-03-29T10:14:21.591Z,37.80
2019-03-29T10:15:21.591Z,39.03
2019-03-29T10:16:21.572Z,37.46
2019-03-29T10:17:21.567Z,37.53
2019-03-29T10:18:21.578Z,36.49
2019-03-29T10:19:21.537Z,34.69
2019-03-29T10:20:21.532Z,36.53
2019-03-29T10:21:21.519Z,36.03
2019-03-29T10:22:21.516Z,35.08
2019-03-29T10:23:21.529Z,34.34
2019-03-29T10:24:21.503Z,34.48
2019-03-29T10:25:21.765Z,33.50
2019-03-29T10:26:21.473Z,32.54
2019-03-29T10:27:21.458Z,32.23
2019-03-29T10:28:21.480Z,31.54
2019-03-29T10:29:21.457Z,30.33
2019-03-29T10:30:21.440Z,30.65
2019-03-29T10:31:32.124Z,31.41
2019-03-29T10:32:22.411Z,30.62
2019-03-29T10:33:21.416Z,31.63
2019-03-29T10:34:21.388Z,31.03
2019-03-29T10:35:21.388Z,31.64
2019-03-29T10:36:21.374Z,31.64
2019-03-29T10:37:21.361Z,32.42
2019-03-29T10:38:21.389Z,31.34
2019-03-29T10:39:21.336Z,32.04
2019-03-29T10:40:21.912Z,32.10
2019-03-29T10:41:22.677Z,33.55
2019-03-29T10:42:21.320Z,31.60
2019-03-29T10:43:21.418Z,30.21
2019-03-29T10:44:21.283Z,31.18
2019-03-29T10:45:21.272Z,29.52
2019-03-29T10:46:21.272Z,31.77
2019-03-29T10:47:21.264Z,32.90
2019-03-29T10:48:21.281Z,33.54
2019-03-29T10:49:21.248Z,34.69
2019-03-29T10:50:21.219Z,33.22
2019-03-29T10:51:21.215Z,32.71
2019-03-29T10:52:21.208Z,32.59
2019-03-29T10:53:21.235Z,32.89
2019-03-29T10:54:21.191Z,32.39
2019-03-29T10:55:21.170Z,31.46
2019-03-29T10:56:33.409Z,31.64
2019-03-29T10:57:22.157Z,33.05
2019-03-29T10:58:21.177Z,31.77
2019-03-29T10:59:27.174Z,34.25
2019-03-29T11:00:22.129Z,32.04
2019-03-29T11:01:24.480Z,32.35
2019-03-29T11:02:21.102Z,33.22
2019-03-29T11:03:21.172Z,32.07
2019-03-29T11:04:21.087Z,31.84
2019-03-29T11:05:21.082Z,30.70
2019-03-29T11:06:21.067Z,30.60
2019-03-29T11:07:21.061Z,30.52
2019-03-29T11:08:21.088Z,30.19
2019-03-29T11:09:21.039Z,30.86
2019-03-29T11:10:21.026Z,29.52
2019-03-29T11:11:21.022Z,28.83
2019-03-29T11:12:21.011Z,30.35
2019-03-29T11:13:21.042Z,29.86
2019-03-29T11:14:20.983Z,29.63
2019-03-29T11:15:20.977Z,30.56
2019-03-29T11:16:20.972Z,31.56
2019-03-29T11:17:20.962Z,31.56
2019-03-29T11:18:21.002Z,32.40
2019-03-29T11:19:20.937Z,34.28
2019-03-29T11:20:20.938Z,35.60
2019-03-29T11:21:20.935Z,36.38
2019-03-29T11:22:20.907Z,34.26
2019-03-29T11:23:30.009Z,33.96
2019-03-29T11:24:20.877Z,33.78
2019-03-29T11:25:20.872Z,30.75
2019-03-29T11:26:20.867Z,32.15
2019-03-29T11:27:22.454Z,32.34
2019-03-29T11:28:20.842Z,31.64
2019-03-29T11:29:20.848Z,33.35
2019-03-29T11:30:20.815Z,32.17
2019-03-29T11:31:20.818Z,32.35
2019-03-29T11:32:20.809Z,32.34
2019-03-29T11:33:20.788Z,32.75
2019-03-29T11:34:21.155Z,32.34
2019-03-29T11:35:20.779Z,32.21
2019-03-29T11:36:20.759Z,33.08
2019-03-29T11:37:20.749Z,31.99
2019-03-29T11:38:20.746Z,31.45
2019-03-29T11:39:20.759Z,31.98
2019-03-29T11:40:20.717Z,30.68
2019-03-29T11:41:20.707Z,30.07
2019-03-29T11:42:20.695Z,30.52
2019-03-29T11:43:27.017Z,32.34
2019-03-29T11:44:21.712Z,32.14
2019-03-29T11:45:20.664Z,32.14
2019-03-29T11:46:20.661Z,32.98
2019-03-29T11:47:20.670Z,33.56
2019-03-29T11:48:20.635Z,33.70
2019-03-29T11:49:20.649Z,34.25
2019-03-29T11:50:20.620Z,34.56
2019-03-29T11:51:20.599Z,33.70
2019-03-29T11:52:20.586Z,32.45
2019-03-29T11:53:20.592Z,33.65
2019-03-29T11:54:20.612Z,33.23
2019-03-29T11:55:20.566Z,34.34
2019-03-29T11:56:20.569Z,34.05
2019-03-29T11:57:20.544Z,35.66
2019-03-29T11:58:20.538Z,35.88
2019-03-29T11:59:20.552Z,35.23
2019-03-29T12:00:20.512Z,34.73
2019-03-29T12:01:20.508Z,34.86
2019-03-29T12:02:31.059Z,33.14
2019-03-29T12:03:21.488Z,33.12
2019-03-29T12:04:20.521Z,31.73
2019-03-29T12:05:20.493Z,31.84
2019-03-29T12:06:20.453Z,32.03
2019-03-29T12:07:20.457Z,32.30
2019-03-29T12:08:20.450Z,34.50
2019-03-29T12:09:20.475Z,34.20
2019-03-29T12:10:20.414Z,34.11
2019-03-29T12:11:20.412Z,35.72
2019-03-29T12:12:20.389Z,35.68
2019-03-29T12:13:20.386Z,34.25
2019-03-29T12:14:20.401Z,33.05
2019-03-29T12:15:20.360Z,31.63
2019-03-29T12:16:20.353Z,30.83
2019-03-29T12:17:20.348Z,30.73
2019-03-29T12:18:20.330Z,31.90
2019-03-29T12:19:20.353Z,33.43
2019-03-29T12:20:20.314Z,35.93
2019-03-29T12:21:20.323Z,37.27
2019-03-29T12:22:20.295Z,37.80
2019-03-29T12:23:20.285Z,37.96
2019-03-29T12:24:20.311Z,36.41
2019-03-29T12:25:20.272Z,35.78
2019-03-29T12:26:20.254Z,35.39
2019-03-29T12:27:20.241Z,35.36
2019-03-29T12:28:20.229Z,35.26
2019-03-29T12:29:20.221Z,34.61
2019-03-29T12:30:31.155Z,33.90
2019-03-29T12:31:21.236Z,31.34
2019-03-29T12:32:20.196Z,30.41
2019-03-29T12:33:20.177Z,29.11
2019-03-29T12:34:20.168Z,30.12
2019-03-29T12:35:20.186Z,29.78
2019-03-29T12:36:20.154Z,29.69
2019-03-29T12:37:20.137Z,31.10
2019-03-29T12:38:20.134Z,32.81
2019-03-29T12:39:20.116Z,34.41
2019-03-29T12:40:20.132Z,34.46
2019-03-29T12:41:20.097Z,34.31
2019-03-29T12:42:20.090Z,36.68
2019-03-29T12:43:20.080Z,37.40
2019-03-29T12:44:20.079Z,37.98
2019-03-29T12:45:20.092Z,36.84
2019-03-29T12:46:20.049Z,35.68
2019-03-29T12:47:20.044Z,35.49
2019-03-29T12:48:20.028Z,35.76
2019-03-29T12:49:20.028Z,36.93
2019-03-29T12:50:20.039Z,37.06
2019-03-29T12:51:20.003Z,36.44
2019-03-29T12:52:19.991Z,35.76